sensor_id;sensor_type;location;lat;lon;timestamp;temperature;humidity
44047;DHT22;29713;-33.888;151.150;2023-11-21T00:00:04;23.10;99.90
44047;DHT22;29713;-33.888;151.150;2023-11-21T00:02:39;23.20;99.90
44047;DHT22;29713;-33.888;151.150;2023-11-21T00:05:12;23.40;99.90
44047;DHT22;29713;-33.888;151.150;2023-11-21T00:07:42;23.60;99.90
44047;DHT22;29713;-33.888;151.150;2023-11-21T00:10:10;23.70;99.90
44047;DHT22;29713;-33.888;151.150;2023-11-21T00:12:38;23.80;99.90
44047;DHT22;29713;-33.888;151.150;2023-11-21T00:15:09;23.90;99.90
44047;DHT22;29713;-33.888;151.150;2023-11-21T00:17:39;24.00;99.90
44047;DHT22;29713;-33.888;151.150;2023-11-21T00:20:07;24.00;99.90
44047;DHT22;29713;-33.888;151.150;2023-11-21T00:22:36;24.00;99.90
44047;DHT22;29713;-33.888;151.150;2023-11-21T00:25:03;24.10;99.90
44047;DHT22;29713;-33.888;151.150;2023-11-21T00:27:36;24.30;99.90
44047;DHT22;29713;-33.888;151.150;2023-11-21T00:30:04;24.30;99.90
44047;DHT22;29713;-33.888;151.150;2023-11-21T00:32:32;24.20;99.90
44047;DHT22;29713;-33.888;151.150;2023-11-21T00:35:00;24.10;99.90
44047;DHT22;29713;-33.888;151.150;2023-11-21T00:37:27;24.10;99.90
44047;DHT22;29713;-33.888;151.150;2023-11-21T00:39:55;24.20;99.90
44047;DHT22;29713;-33.888;151.150;2023-11-21T00:42:23;24.20;99.90
44047;DHT22;29713;-33.888;151.150;2023-11-21T00:44:50;24.30;99.90
44047;DHT22;29713;-33.888;151.150;2023-11-21T00:47:18;24.20;99.90
44047;DHT22;29713;-33.888;151.150;2023-11-21T00:49:45;24.30;99.90
44047;DHT22;29713;-33.888;151.150;2023-11-21T00:52:12;24.40;99.90
44047;DHT22;29713;-33.888;151.150;2023-11-21T00:54:40;24.40;99.90
44047;DHT22;29713;-33.888;151.150;2023-11-21T00:57:07;24.70;99.90
44047;DHT22;29713;-33.888;151.150;2023-11-21T00:59:35;24.80;99.90
44047;DHT22;29713;-33.888;151.150;2023-11-21T01:02:02;25.10;99.90
44047;DHT22;29713;-33.888;151.150;2023-11-21T01:04:34;25.40;99.90
44047;DHT22;29713;-33.888;151.150;2023-11-21T01:07:01;25.80;99.90
44047;DHT22;29713;-33.888;151.150;2023-11-21T01:09:29;26.10;99.90
44047;DHT22;29713;-33.888;151.150;2023-11-21T01:11:56;26.40;99.90
44047;DHT22;29713;-33.888;151.150;2023-11-21T01:14:24;26.40;99.90
44047;DHT22;29713;-33.888;151.150;2023-11-21T01:16:53;26.20;99.90
44047;DHT22;29713;-33.888;151.150;2023-11-21T01:19:21;26.00;99.90
44047;DHT22;29713;-33.888;151.150;2023-11-21T01:21:48;25.70;99.90
44047;DHT22;29713;-33.888;151.150;2023-11-21T01:24:15;25.40;99.90
44047;DHT22;29713;-33.888;151.150;2023-11-21T01:26:43;25.10;99.90
44047;DHT22;29713;-33.888;151.150;2023-11-21T01:29:13;24.90;99.90
44047;DHT22;29713;-33.888;151.150;2023-11-21T01:31:41;24.70;99.90
44047;DHT22;29713;-33.888;151.150;2023-11-21T01:34:09;24.50;99.90
44047;DHT22;29713;-33.888;151.150;2023-11-21T01:36:36;24.40;99.90
44047;DHT22;29713;-33.888;151.150;2023-11-21T01:39:04;24.50;99.90
44047;DHT22;29713;-33.888;151.150;2023-11-21T01:41:35;24.30;99.90
44047;DHT22;29713;-33.888;151.150;2023-11-21T01:44:05;24.30;99.90
44047;DHT22;29713;-33.888;151.150;2023-11-21T01:46:36;24.30;99.90
44047;DHT22;29713;-33.888;151.150;2023-11-21T01:49:04;24.60;99.90
44047;DHT22;29713;-33.888;151.150;2023-11-21T01:51:32;25.10;99.90
44047;DHT22;29713;-33.888;151.150;2023-11-21T01:54:00;25.30;99.90
44047;DHT22;29713;-33.888;151.150;2023-11-21T01:56:28;25.40;99.90
44047;DHT22;29713;-33.888;151.150;2023-11-21T01:59:00;25.50;99.90
44047;DHT22;29713;-33.888;151.150;2023-11-21T02:01:28;25.70;99.90
44047;DHT22;29713;-33.888;151.150;2023-11-21T02:03:55;25.80;99.90
44047;DHT22;29713;-33.888;151.150;2023-11-21T02:06:22;25.80;99.90
44047;DHT22;29713;-33.888;151.150;2023-11-21T02:08:51;25.80;99.90
44047;DHT22;29713;-33.888;151.150;2023-11-21T02:11:18;26.20;99.90
44047;DHT22;29713;-33.888;151.150;2023-11-21T02:13:46;26.10;99.90
44047;DHT22;29713;-33.888;151.150;2023-11-21T02:16:13;25.80;99.90
44047;DHT22;29713;-33.888;151.150;2023-11-21T02:18:41;25.50;99.90
44047;DHT22;29713;-33.888;151.150;2023-11-21T02:21:08;25.50;99.90
44047;DHT22;29713;-33.888;151.150;2023-11-21T02:23:36;25.50;99.90
44047;DHT22;29713;-33.888;151.150;2023-11-21T02:26:08;25.60;99.90
44047;DHT22;29713;-33.888;151.150;2023-11-21T02:28:36;25.70;99.90
44047;DHT22;29713;-33.888;151.150;2023-11-21T02:31:05;25.80;99.90
44047;DHT22;29713;-33.888;151.150;2023-11-21T02:33:34;26.00;99.90
44047;DHT22;29713;-33.888;151.150;2023-11-21T02:36:02;26.70;99.90
44047;DHT22;29713;-33.888;151.150;2023-11-21T02:38:30;27.70;99.90
44047;DHT22;29713;-33.888;151.150;2023-11-21T02:40:58;28.10;99.90
44047;DHT22;29713;-33.888;151.150;2023-11-21T02:43:28;28.20;99.90
44047;DHT22;29713;-33.888;151.150;2023-11-21T02:45:56;28.00;99.90
44047;DHT22;29713;-33.888;151.150;2023-11-21T02:48:23;27.60;99.90
44047;DHT22;29713;-33.888;151.150;2023-11-21T02:50:52;27.50;99.90
44047;DHT22;29713;-33.888;151.150;2023-11-21T02:53:19;27.50;99.90
44047;DHT22;29713;-33.888;151.150;2023-11-21T02:55:47;27.40;99.90
44047;DHT22;29713;-33.888;151.150;2023-11-21T02:58:14;27.40;99.90
44047;DHT22;29713;-33.888;151.150;2023-11-21T03:00:41;27.40;99.90
44047;DHT22;29713;-33.888;151.150;2023-11-21T03:03:12;27.30;99.90
44047;DHT22;29713;-33.888;151.150;2023-11-21T03:05:41;27.30;99.90
44047;DHT22;29713;-33.888;151.150;2023-11-21T03:08:08;27.40;99.90
44047;DHT22;29713;-33.888;151.150;2023-11-21T03:10:35;27.60;99.90
44047;DHT22;29713;-33.888;151.150;2023-11-21T03:13:03;27.80;99.90
44047;DHT22;29713;-33.888;151.150;2023-11-21T03:15:31;28.10;99.90
44047;DHT22;29713;-33.888;151.150;2023-11-21T03:17:59;28.30;99.90
44047;DHT22;29713;-33.888;151.150;2023-11-21T03:20:26;28.60;99.90
44047;DHT22;29713;-33.888;151.150;2023-11-21T03:22:54;28.80;99.90
44047;DHT22;29713;-33.888;151.150;2023-11-21T03:25:21;28.80;99.90
44047;DHT22;29713;-33.888;151.150;2023-11-21T03:27:50;29.10;99.90
44047;DHT22;29713;-33.888;151.150;2023-11-21T03:30:17;29.20;99.90
44047;DHT22;29713;-33.888;151.150;2023-11-21T03:32:45;29.70;99.90
44047;DHT22;29713;-33.888;151.150;2023-11-21T03:35:12;29.90;99.90
44047;DHT22;29713;-33.888;151.150;2023-11-21T03:37:40;30.20;99.90
44047;DHT22;29713;-33.888;151.150;2023-11-21T03:40:11;30.00;99.90
44047;DHT22;29713;-33.888;151.150;2023-11-21T03:42:39;30.10;99.90
44047;DHT22;29713;-33.888;151.150;2023-11-21T03:45:07;30.60;99.90
44047;DHT22;29713;-33.888;151.150;2023-11-21T03:47:35;30.80;99.90
44047;DHT22;29713;-33.888;151.150;2023-11-21T03:50:03;30.40;99.90
44047;DHT22;29713;-33.888;151.150;2023-11-21T03:52:30;29.80;99.90
44047;DHT22;29713;-33.888;151.150;2023-11-21T03:54:58;29.50;99.90
44047;DHT22;29713;-33.888;151.150;2023-11-21T03:57:25;29.70;99.90
44047;DHT22;29713;-33.888;151.150;2023-11-21T03:59:54;29.70;99.90
44047;DHT22;29713;-33.888;151.150;2023-11-21T04:02:21;29.50;99.90
44047;DHT22;29713;-33.888;151.150;2023-11-21T04:04:49;29.60;99.90
44047;DHT22;29713;-33.888;151.150;2023-11-21T04:07:16;30.20;99.90
44047;DHT22;29713;-33.888;151.150;2023-11-21T04:09:44;30.40;99.90
44047;DHT22;29713;-33.888;151.150;2023-11-21T04:12:11;30.30;99.90
44047;DHT22;29713;-33.888;151.150;2023-11-21T04:14:39;30.00;99.90
44047;DHT22;29713;-33.888;151.150;2023-11-21T04:17:06;30.10;99.90
44047;DHT22;29713;-33.888;151.150;2023-11-21T04:19:33;30.50;99.90
44047;DHT22;29713;-33.888;151.150;2023-11-21T04:22:01;31.20;99.90
44047;DHT22;29713;-33.888;151.150;2023-11-21T04:24:28;31.20;99.90
44047;DHT22;29713;-33.888;151.150;2023-11-21T04:26:55;30.70;99.90
44047;DHT22;29713;-33.888;151.150;2023-11-21T04:29:23;30.20;99.90
44047;DHT22;29713;-33.888;151.150;2023-11-21T04:31:53;30.10;99.90
44047;DHT22;29713;-33.888;151.150;2023-11-21T04:34:20;30.20;99.90
44047;DHT22;29713;-33.888;151.150;2023-11-21T04:36:49;30.50;99.90
44047;DHT22;29713;-33.888;151.150;2023-11-21T04:39:16;31.10;99.90
44047;DHT22;29713;-33.888;151.150;2023-11-21T04:41:44;31.70;99.90
44047;DHT22;29713;-33.888;151.150;2023-11-21T04:44:11;32.10;99.90
44047;DHT22;29713;-33.888;151.150;2023-11-21T04:46:39;32.40;99.90
44047;DHT22;29713;-33.888;151.150;2023-11-21T04:49:07;32.30;99.90
44047;DHT22;29713;-33.888;151.150;2023-11-21T04:51:34;32.40;99.90
44047;DHT22;29713;-33.888;151.150;2023-11-21T04:54:02;32.80;99.90
44047;DHT22;29713;-33.888;151.150;2023-11-21T04:56:30;32.60;99.90
44047;DHT22;29713;-33.888;151.150;2023-11-21T04:58:57;32.20;99.90
44047;DHT22;29713;-33.888;151.150;2023-11-21T05:01:24;32.00;99.90
44047;DHT22;29713;-33.888;151.150;2023-11-21T05:03:52;32.00;99.90
44047;DHT22;29713;-33.888;151.150;2023-11-21T05:06:22;32.50;99.90
44047;DHT22;29713;-33.888;151.150;2023-11-21T05:08:50;32.20;99.90
44047;DHT22;29713;-33.888;151.150;2023-11-21T05:11:27;32.00;99.90
44047;DHT22;29713;-33.888;151.150;2023-11-21T05:13:55;32.00;99.90
44047;DHT22;29713;-33.888;151.150;2023-11-21T05:16:28;32.10;99.90
44047;DHT22;29713;-33.888;151.150;2023-11-21T05:18:55;32.30;99.90
44047;DHT22;29713;-33.888;151.150;2023-11-21T05:21:27;32.00;99.90
44047;DHT22;29713;-33.888;151.150;2023-11-21T05:23:56;31.70;99.90
44047;DHT22;29713;-33.888;151.150;2023-11-21T05:26:27;31.40;99.90
44047;DHT22;29713;-33.888;151.150;2023-11-21T05:28:54;31.00;99.90
44047;DHT22;29713;-33.888;151.150;2023-11-21T05:31:22;31.10;99.90
44047;DHT22;29713;-33.888;151.150;2023-11-21T05:33:49;31.10;99.90
44047;DHT22;29713;-33.888;151.150;2023-11-21T05:36:16;31.00;99.90
44047;DHT22;29713;-33.888;151.150;2023-11-21T05:38:44;31.00;99.90
44047;DHT22;29713;-33.888;151.150;2023-11-21T05:41:12;30.90;99.90
44047;DHT22;29713;-33.888;151.150;2023-11-21T05:43:40;30.60;99.90
44047;DHT22;29713;-33.888;151.150;2023-11-21T05:46:07;30.20;99.90
44047;DHT22;29713;-33.888;151.150;2023-11-21T05:48:35;29.80;99.90
44047;DHT22;29713;-33.888;151.150;2023-11-21T05:51:05;29.10;99.90
44047;DHT22;29713;-33.888;151.150;2023-11-21T05:53:33;28.50;99.90
44047;DHT22;29713;-33.888;151.150;2023-11-21T05:56:01;28.10;99.90
44047;DHT22;29713;-33.888;151.150;2023-11-21T05:58:30;27.60;99.90
44047;DHT22;29713;-33.888;151.150;2023-11-21T06:00:57;27.20;99.90
44047;DHT22;29713;-33.888;151.150;2023-11-21T06:03:25;26.90;99.90
44047;DHT22;29713;-33.888;151.150;2023-11-21T06:05:52;26.80;99.90
44047;DHT22;29713;-33.888;151.150;2023-11-21T06:08:21;26.60;99.90
44047;DHT22;29713;-33.888;151.150;2023-11-21T06:10:49;26.50;99.90
44047;DHT22;29713;-33.888;151.150;2023-11-21T06:13:17;26.40;99.90
44047;DHT22;29713;-33.888;151.150;2023-11-21T06:15:51;26.10;99.90
44047;DHT22;29713;-33.888;151.150;2023-11-21T06:18:19;26.10;99.90
44047;DHT22;29713;-33.888;151.150;2023-11-21T06:20:47;26.10;99.90
44047;DHT22;29713;-33.888;151.150;2023-11-21T06:23:16;26.00;99.90
44047;DHT22;29713;-33.888;151.150;2023-11-21T06:25:45;26.10;99.90
44047;DHT22;29713;-33.888;151.150;2023-11-21T06:28:17;26.30;99.90
44047;DHT22;29713;-33.888;151.150;2023-11-21T06:30:53;26.50;99.90
44047;DHT22;29713;-33.888;151.150;2023-11-21T06:33:28;26.50;99.90
44047;DHT22;29713;-33.888;151.150;2023-11-21T06:36:00;26.40;99.90
44047;DHT22;29713;-33.888;151.150;2023-11-21T06:38:38;26.20;99.90
44047;DHT22;29713;-33.888;151.150;2023-11-21T06:41:07;25.90;99.90
44047;DHT22;29713;-33.888;151.150;2023-11-21T06:43:35;25.70;99.90
44047;DHT22;29713;-33.888;151.150;2023-11-21T06:46:02;25.60;99.90
44047;DHT22;29713;-33.888;151.150;2023-11-21T06:48:31;25.60;99.90
44047;DHT22;29713;-33.888;151.150;2023-11-21T06:50:58;25.50;99.90
44047;DHT22;29713;-33.888;151.150;2023-11-21T06:53:26;25.40;99.90
44047;DHT22;29713;-33.888;151.150;2023-11-21T06:55:54;25.30;99.90
44047;DHT22;29713;-33.888;151.150;2023-11-21T06:58:23;25.20;99.90
44047;DHT22;29713;-33.888;151.150;2023-11-21T07:00:51;25.10;99.90
44047;DHT22;29713;-33.888;151.150;2023-11-21T07:03:19;24.90;99.90
44047;DHT22;29713;-33.888;151.150;2023-11-21T07:05:50;24.80;99.90
44047;DHT22;29713;-33.888;151.150;2023-11-21T07:08:17;24.60;99.90
44047;DHT22;29713;-33.888;151.150;2023-11-21T07:10:45;24.50;99.90
44047;DHT22;29713;-33.888;151.150;2023-11-21T07:13:14;24.40;99.90
44047;DHT22;29713;-33.888;151.150;2023-11-21T07:15:42;24.20;99.90
44047;DHT22;29713;-33.888;151.150;2023-11-21T07:18:10;24.30;99.90
44047;DHT22;29713;-33.888;151.150;2023-11-21T07:20:38;24.30;99.90
44047;DHT22;29713;-33.888;151.150;2023-11-21T07:23:06;24.30;99.90
44047;DHT22;29713;-33.888;151.150;2023-11-21T07:25:33;24.30;99.90
44047;DHT22;29713;-33.888;151.150;2023-11-21T07:28:02;24.30;99.90
44047;DHT22;29713;-33.888;151.150;2023-11-21T07:30:32;24.30;99.90
44047;DHT22;29713;-33.888;151.150;2023-11-21T07:32:59;24.40;99.90
44047;DHT22;29713;-33.888;151.150;2023-11-21T07:35:30;24.30;99.90
44047;DHT22;29713;-33.888;151.150;2023-11-21T07:38:00;24.10;99.90
44047;DHT22;29713;-33.888;151.150;2023-11-21T07:40:27;24.00;99.90
44047;DHT22;29713;-33.888;151.150;2023-11-21T07:42:55;24.00;99.90
44047;DHT22;29713;-33.888;151.150;2023-11-21T07:45:24;23.90;99.90
44047;DHT22;29713;-33.888;151.150;2023-11-21T07:47:59;23.80;99.90
44047;DHT22;29713;-33.888;151.150;2023-11-21T07:50:33;23.70;99.90
44047;DHT22;29713;-33.888;151.150;2023-11-21T07:53:05;23.60;99.90
44047;DHT22;29713;-33.888;151.150;2023-11-21T07:55:42;23.50;99.90
44047;DHT22;29713;-33.888;151.150;2023-11-21T07:58:11;23.40;99.90
44047;DHT22;29713;-33.888;151.150;2023-11-21T08:00:39;23.30;99.90
44047;DHT22;29713;-33.888;151.150;2023-11-21T08:03:06;23.20;99.90
44047;DHT22;29713;-33.888;151.150;2023-11-21T08:05:34;23.10;99.90
44047;DHT22;29713;-33.888;151.150;2023-11-21T08:08:01;23.10;99.90
44047;DHT22;29713;-33.888;151.150;2023-11-21T08:10:29;23.00;99.90
44047;DHT22;29713;-33.888;151.150;2023-11-21T08:12:56;23.00;99.90
44047;DHT22;29713;-33.888;151.150;2023-11-21T08:15:25;23.10;99.90
44047;DHT22;29713;-33.888;151.150;2023-11-21T08:17:52;23.00;99.90
44047;DHT22;29713;-33.888;151.150;2023-11-21T08:20:20;22.90;99.90
44047;DHT22;29713;-33.888;151.150;2023-11-21T08:22:49;22.80;99.90
44047;DHT22;29713;-33.888;151.150;2023-11-21T08:25:17;22.80;99.90
44047;DHT22;29713;-33.888;151.150;2023-11-21T08:27:46;22.80;99.90
44047;DHT22;29713;-33.888;151.150;2023-11-21T08:30:14;22.90;99.90
44047;DHT22;29713;-33.888;151.150;2023-11-21T08:32:43;22.80;99.90
44047;DHT22;29713;-33.888;151.150;2023-11-21T08:35:11;22.80;99.90
44047;DHT22;29713;-33.888;151.150;2023-11-21T08:37:38;22.80;99.90
44047;DHT22;29713;-33.888;151.150;2023-11-21T08:40:06;22.80;99.90
44047;DHT22;29713;-33.888;151.150;2023-11-21T08:42:36;22.70;99.90
44047;DHT22;29713;-33.888;151.150;2023-11-21T08:45:05;22.70;99.90
44047;DHT22;29713;-33.888;151.150;2023-11-21T08:47:35;22.70;99.90
44047;DHT22;29713;-33.888;151.150;2023-11-21T08:50:03;22.70;99.90
44047;DHT22;29713;-33.888;151.150;2023-11-21T08:52:32;22.70;99.90
44047;DHT22;29713;-33.888;151.150;2023-11-21T08:55:00;22.60;99.90
44047;DHT22;29713;-33.888;151.150;2023-11-21T08:57:38;22.50;99.90
44047;DHT22;29713;-33.888;151.150;2023-11-21T09:00:07;22.40;99.90
44047;DHT22;29713;-33.888;151.150;2023-11-21T09:02:42;22.40;99.90
44047;DHT22;29713;-33.888;151.150;2023-11-21T09:05:11;22.40;99.90
44047;DHT22;29713;-33.888;151.150;2023-11-21T09:07:39;22.40;99.90
44047;DHT22;29713;-33.888;151.150;2023-11-21T09:10:08;22.40;99.90
44047;DHT22;29713;-33.888;151.150;2023-11-21T09:12:36;22.40;99.90
44047;DHT22;29713;-33.888;151.150;2023-11-21T09:15:07;22.50;99.90
44047;DHT22;29713;-33.888;151.150;2023-11-21T09:17:36;22.50;99.90
44047;DHT22;29713;-33.888;151.150;2023-11-21T09:20:04;22.50;99.90
44047;DHT22;29713;-33.888;151.150;2023-11-21T09:22:32;22.60;99.90
44047;DHT22;29713;-33.888;151.150;2023-11-21T09:25:00;22.70;99.90
44047;DHT22;29713;-33.888;151.150;2023-11-21T09:27:27;22.70;99.90
44047;DHT22;29713;-33.888;151.150;2023-11-21T09:29:55;22.80;99.90
44047;DHT22;29713;-33.888;151.150;2023-11-21T09:32:22;22.70;99.90
44047;DHT22;29713;-33.888;151.150;2023-11-21T09:34:50;22.70;99.90
44047;DHT22;29713;-33.888;151.150;2023-11-21T09:37:18;22.70;99.90
44047;DHT22;29713;-33.888;151.150;2023-11-21T09:39:45;22.60;99.90
44047;DHT22;29713;-33.888;151.150;2023-11-21T09:42:23;22.50;99.90
44047;DHT22;29713;-33.888;151.150;2023-11-21T09:45:18;22.40;99.90
44047;DHT22;29713;-33.888;151.150;2023-11-21T09:47:47;22.40;99.90
44047;DHT22;29713;-33.888;151.150;2023-11-21T09:50:17;22.40;99.90
44047;DHT22;29713;-33.888;151.150;2023-11-21T09:55:44;22.30;99.90
44047;DHT22;29713;-33.888;151.150;2023-11-21T09:58:13;22.30;99.90
44047;DHT22;29713;-33.888;151.150;2023-11-21T10:00:48;22.40;99.90
44047;DHT22;29713;-33.888;151.150;2023-11-21T10:03:16;22.40;99.90
44047;DHT22;29713;-33.888;151.150;2023-11-21T10:05:44;22.40;99.90
44047;DHT22;29713;-33.888;151.150;2023-11-21T10:08:18;22.40;99.90
44047;DHT22;29713;-33.888;151.150;2023-11-21T10:10:51;22.40;99.90
44047;DHT22;29713;-33.888;151.150;2023-11-21T10:13:20;22.40;99.90
44047;DHT22;29713;-33.888;151.150;2023-11-21T10:15:52;22.50;99.90
44047;DHT22;29713;-33.888;151.150;2023-11-21T10:18:20;22.40;99.90
44047;DHT22;29713;-33.888;151.150;2023-11-21T10:20:49;22.40;99.90
44047;DHT22;29713;-33.888;151.150;2023-11-21T10:23:21;22.40;99.90
44047;DHT22;29713;-33.888;151.150;2023-11-21T10:25:49;22.40;99.90
44047;DHT22;29713;-33.888;151.150;2023-11-21T10:28:18;22.40;99.90
44047;DHT22;29713;-33.888;151.150;2023-11-21T10:30:47;22.40;99.90
44047;DHT22;29713;-33.888;151.150;2023-11-21T10:33:14;22.40;99.90
44047;DHT22;29713;-33.888;151.150;2023-11-21T10:35:45;22.30;99.90
44047;DHT22;29713;-33.888;151.150;2023-11-21T10:38:18;22.30;99.90
44047;DHT22;29713;-33.888;151.150;2023-11-21T10:40:47;22.30;99.90
44047;DHT22;29713;-33.888;151.150;2023-11-21T10:43:16;22.30;99.90
44047;DHT22;29713;-33.888;151.150;2023-11-21T10:45:44;22.20;99.90
44047;DHT22;29713;-33.888;151.150;2023-11-21T10:48:14;22.30;99.90
44047;DHT22;29713;-33.888;151.150;2023-11-21T10:50:46;22.30;99.90
44047;DHT22;29713;-33.888;151.150;2023-11-21T10:53:13;22.30;99.90
44047;DHT22;29713;-33.888;151.150;2023-11-21T10:55:41;22.30;99.90
44047;DHT22;29713;-33.888;151.150;2023-11-21T10:58:11;22.30;99.90
44047;DHT22;29713;-33.888;151.150;2023-11-21T11:00:40;22.30;99.90
44047;DHT22;29713;-33.888;151.150;2023-11-21T11:03:08;22.30;99.90
44047;DHT22;29713;-33.888;151.150;2023-11-21T11:05:42;22.30;99.90
44047;DHT22;29713;-33.888;151.150;2023-11-21T11:08:20;22.30;99.90
44047;DHT22;29713;-33.888;151.150;2023-11-21T11:10:53;22.20;99.90
44047;DHT22;29713;-33.888;151.150;2023-11-21T11:13:20;22.10;99.90
44047;DHT22;29713;-33.888;151.150;2023-11-21T11:15:48;22.10;99.90
44047;DHT22;29713;-33.888;151.150;2023-11-21T11:18:16;22.10;99.90
44047;DHT22;29713;-33.888;151.150;2023-11-21T11:20:46;22.10;99.90
44047;DHT22;29713;-33.888;151.150;2023-11-21T11:28:48;22.10;99.90
44047;DHT22;29713;-33.888;151.150;2023-11-21T11:34:08;22.10;99.90
44047;DHT22;29713;-33.888;151.150;2023-11-21T11:37:02;22.10;99.90
44047;DHT22;29713;-33.888;151.150;2023-11-21T11:39:32;22.00;99.90
44047;DHT22;29713;-33.888;151.150;2023-11-21T11:42:10;21.90;99.90
44047;DHT22;29713;-33.888;151.150;2023-11-21T11:47:24;21.80;99.90
44047;DHT22;29713;-33.888;151.150;2023-11-21T11:50:08;21.70;99.90
44047;DHT22;29713;-33.888;151.150;2023-11-21T11:52:51;21.60;99.90
44047;DHT22;29713;-33.888;151.150;2023-11-21T11:55:22;21.60;99.90
44047;DHT22;29713;-33.888;151.150;2023-11-21T11:57:52;21.50;99.90
44047;DHT22;29713;-33.888;151.150;2023-11-21T12:03:01;21.60;99.90
44047;DHT22;29713;-33.888;151.150;2023-11-21T12:05:33;21.60;99.90
44047;DHT22;29713;-33.888;151.150;2023-11-21T12:08:12;21.60;99.90
44047;DHT22;29713;-33.888;151.150;2023-11-21T12:10:39;21.70;99.90
44047;DHT22;29713;-33.888;151.150;2023-11-21T12:13:09;21.70;99.90
44047;DHT22;29713;-33.888;151.150;2023-11-21T12:15:37;21.70;99.90
44047;DHT22;29713;-33.888;151.150;2023-11-21T12:18:05;21.70;99.90
44047;DHT22;29713;-33.888;151.150;2023-11-21T12:20:33;21.70;99.90
44047;DHT22;29713;-33.888;151.150;2023-11-21T12:23:06;21.60;99.90
44047;DHT22;29713;-33.888;151.150;2023-11-21T12:25:35;21.60;99.90
44047;DHT22;29713;-33.888;151.150;2023-11-21T12:28:03;21.50;99.90
44047;DHT22;29713;-33.888;151.150;2023-11-21T12:30:34;21.60;99.90
44047;DHT22;29713;-33.888;151.150;2023-11-21T12:33:02;21.60;99.90
44047;DHT22;29713;-33.888;151.150;2023-11-21T12:35:34;21.70;99.90
44047;DHT22;29713;-33.888;151.150;2023-11-21T12:38:03;21.80;99.90
44047;DHT22;29713;-33.888;151.150;2023-11-21T12:40:35;21.90;99.90
44047;DHT22;29713;-33.888;151.150;2023-11-21T12:43:03;21.90;99.90
44047;DHT22;29713;-33.888;151.150;2023-11-21T12:45:34;21.90;99.90
44047;DHT22;29713;-33.888;151.150;2023-11-21T12:48:03;21.90;99.90
44047;DHT22;29713;-33.888;151.150;2023-11-21T12:50:35;21.90;99.90
44047;DHT22;29713;-33.888;151.150;2023-11-21T12:53:08;21.90;99.90
44047;DHT22;29713;-33.888;151.150;2023-11-21T12:55:37;21.80;99.90
44047;DHT22;29713;-33.888;151.150;2023-11-21T12:58:06;21.80;99.90
44047;DHT22;29713;-33.888;151.150;2023-11-21T13:00:44;21.80;99.90
44047;DHT22;29713;-33.888;151.150;2023-11-21T13:03:13;21.80;99.90
44047;DHT22;29713;-33.888;151.150;2023-11-21T13:05:45;21.80;99.90
44047;DHT22;29713;-33.888;151.150;2023-11-21T13:08:14;21.70;99.90
44047;DHT22;29713;-33.888;151.150;2023-11-21T13:10:46;21.70;99.90
44047;DHT22;29713;-33.888;151.150;2023-11-21T13:13:15;21.70;99.90
44047;DHT22;29713;-33.888;151.150;2023-11-21T13:16:04;21.70;99.90
44047;DHT22;29713;-33.888;151.150;2023-11-21T13:18:32;21.60;99.90
44047;DHT22;29713;-33.888;151.150;2023-11-21T13:21:03;21.60;99.90
44047;DHT22;29713;-33.888;151.150;2023-11-21T13:23:36;21.60;99.90
44047;DHT22;29713;-33.888;151.150;2023-11-21T13:26:04;21.60;99.90
44047;DHT22;29713;-33.888;151.150;2023-11-21T13:28:33;21.70;99.90
44047;DHT22;29713;-33.888;151.150;2023-11-21T13:31:02;21.70;99.90
44047;DHT22;29713;-33.888;151.150;2023-11-21T13:33:39;21.80;99.90
44047;DHT22;29713;-33.888;151.150;2023-11-21T13:36:09;21.80;99.90
44047;DHT22;29713;-33.888;151.150;2023-11-21T13:38:36;21.80;99.90
44047;DHT22;29713;-33.888;151.150;2023-11-21T13:41:08;21.80;99.90
44047;DHT22;29713;-33.888;151.150;2023-11-21T13:43:36;21.90;99.90
44047;DHT22;29713;-33.888;151.150;2023-11-21T13:46:04;21.90;99.90
44047;DHT22;29713;-33.888;151.150;2023-11-21T13:48:41;21.90;99.90
44047;DHT22;29713;-33.888;151.150;2023-11-21T13:51:22;21.90;99.90
44047;DHT22;29713;-33.888;151.150;2023-11-21T13:53:58;21.90;99.90
44047;DHT22;29713;-33.888;151.150;2023-11-21T13:56:25;21.90;99.90
44047;DHT22;29713;-33.888;151.150;2023-11-21T13:58:55;21.80;99.90
44047;DHT22;29713;-33.888;151.150;2023-11-21T14:01:24;21.80;99.90
44047;DHT22;29713;-33.888;151.150;2023-11-21T14:04:02;21.90;99.90
44047;DHT22;29713;-33.888;151.150;2023-11-21T14:06:49;21.80;99.90
44047;DHT22;29713;-33.888;151.150;2023-11-21T14:09:21;21.80;99.90
44047;DHT22;29713;-33.888;151.150;2023-11-21T14:11:51;21.70;99.90
44047;DHT22;29713;-33.888;151.150;2023-11-21T14:14:21;21.70;99.90
44047;DHT22;29713;-33.888;151.150;2023-11-21T14:16:48;21.70;99.90
44047;DHT22;29713;-33.888;151.150;2023-11-21T14:19:17;21.80;99.90
44047;DHT22;29713;-33.888;151.150;2023-11-21T14:21:45;21.80;99.90
44047;DHT22;29713;-33.888;151.150;2023-11-21T14:24:14;21.70;99.90
44047;DHT22;29713;-33.888;151.150;2023-11-21T14:26:45;21.70;99.90
44047;DHT22;29713;-33.888;151.150;2023-11-21T14:29:18;21.70;99.90
44047;DHT22;29713;-33.888;151.150;2023-11-21T14:31:50;21.70;99.90
44047;DHT22;29713;-33.888;151.150;2023-11-21T14:34:20;21.70;99.90
44047;DHT22;29713;-33.888;151.150;2023-11-21T14:36:48;21.70;99.90
44047;DHT22;29713;-33.888;151.150;2023-11-21T14:39:15;21.60;99.90
44047;DHT22;29713;-33.888;151.150;2023-11-21T14:41:50;21.60;99.90
44047;DHT22;29713;-33.888;151.150;2023-11-21T14:44:18;21.60;99.90
44047;DHT22;29713;-33.888;151.150;2023-11-21T14:46:47;21.60;99.90
44047;DHT22;29713;-33.888;151.150;2023-11-21T14:49:17;21.70;99.90
44047;DHT22;29713;-33.888;151.150;2023-11-21T14:51:51;21.60;99.90
44047;DHT22;29713;-33.888;151.150;2023-11-21T14:54:29;21.60;99.90
44047;DHT22;29713;-33.888;151.150;2023-11-21T14:57:13;21.60;99.90
44047;DHT22;29713;-33.888;151.150;2023-11-21T14:59:49;21.50;99.90
44047;DHT22;29713;-33.888;151.150;2023-11-21T15:02:24;21.50;99.90
44047;DHT22;29713;-33.888;151.150;2023-11-21T15:05:10;21.50;99.90
44047;DHT22;29713;-33.888;151.150;2023-11-21T15:07:44;21.40;99.90
44047;DHT22;29713;-33.888;151.150;2023-11-21T15:10:12;21.40;99.90
44047;DHT22;29713;-33.888;151.150;2023-11-21T15:12:42;21.30;99.90
44047;DHT22;29713;-33.888;151.150;2023-11-21T15:15:10;21.40;99.90
44047;DHT22;29713;-33.888;151.150;2023-11-21T15:17:37;21.40;99.90